createdAt,value
2016-08-30T00:00:18.350Z,99.99
2016-08-30T00:01:18.039Z,99.99
2016-08-30T00:02:14.370Z,99.99
2016-08-30T00:03:14.406Z,99.99
2016-08-30T00:04:14.390Z,99.99
2016-08-30T00:05:14.582Z,99.99
2016-08-30T00:06:14.362Z,99.99
2016-08-30T00:07:14.298Z,99.99
2016-08-30T00:08:14.296Z,99.99
2016-08-30T00:09:14.304Z,99.99
2016-08-30T00:10:14.309Z,99.99
2016-08-30T00:11:14.372Z,99.99
2016-08-30T00:12:14.434Z,99.99
2016-08-30T00:13:14.377Z,99.99
2016-08-30T00:14:14.386Z,99.99
2016-08-30T00:15:14.383Z,99.99
2016-08-30T00:16:14.300Z,99.99
2016-08-30T00:17:14.390Z,99.99
2016-08-30T00:18:14.304Z,99.99
2016-08-30T00:19:14.310Z,99.99
2016-08-30T00:20:14.403Z,99.99
2016-08-30T00:21:14.391Z,99.99
2016-08-30T00:22:14.308Z,99.99
2016-08-30T00:23:14.307Z,99.99
2016-08-30T00:24:14.391Z,99.99
2016-08-30T00:25:14.398Z,99.99
2016-08-30T00:26:14.394Z,99.99
2016-08-30T00:27:14.324Z,99.99
2016-08-30T00:28:14.402Z,99.99
2016-08-30T00:29:14.325Z,99.99
2016-08-30T00:30:14.319Z,99.99
2016-08-30T00:31:14.327Z,99.99
2016-08-30T00:32:14.325Z,99.99
2016-08-30T00:33:14.326Z,99.99
2016-08-30T00:34:14.402Z,99.99
2016-08-30T00:35:14.321Z,99.99
2016-08-30T00:36:14.336Z,99.99
2016-08-30T00:37:14.327Z,99.99
2016-08-30T00:38:14.409Z,99.99
2016-08-30T00:39:14.335Z,99.99
2016-08-30T00:40:14.413Z,99.99
2016-08-30T00:41:14.418Z,99.99
2016-08-30T00:42:14.333Z,99.99
2016-08-30T00:43:14.413Z,99.99
2016-08-30T00:44:14.418Z,99.99
2016-08-30T00:45:14.348Z,99.99
2016-08-30T00:46:14.432Z,99.99
2016-08-30T00:47:14.341Z,99.99
2016-08-30T00:48:14.340Z,99.99
2016-08-30T00:49:14.419Z,99.99
2016-08-30T00:50:14.358Z,99.99
2016-08-30T00:51:14.434Z,99.99
2016-08-30T00:52:14.368Z,99.99
2016-08-30T00:53:14.357Z,99.99
2016-08-30T00:54:14.348Z,99.99
2016-08-30T00:55:14.367Z,99.99
2016-08-30T00:56:14.436Z,99.99
2016-08-30T00:57:14.354Z,99.99
2016-08-30T00:58:14.448Z,99.99
2016-08-30T00:59:14.358Z,99.99
2016-08-30T01:00:14.707Z,99.99
2016-08-30T01:01:14.430Z,99.99
2016-08-30T01:02:14.446Z,99.99
2016-08-30T01:03:14.364Z,99.99
2016-08-30T01:04:14.378Z,99.99
2016-08-30T01:05:14.478Z,99.99
2016-08-30T01:06:14.463Z,99.99
2016-08-30T01:07:14.462Z,99.99
2016-08-30T01:08:14.477Z,99.99
2016-08-30T01:09:14.461Z,99.99
2016-08-30T01:10:14.410Z,99.99
2016-08-30T01:11:14.387Z,99.99
2016-08-30T01:12:14.450Z,99.99
2016-08-30T01:13:14.467Z,99.99
2016-08-30T01:14:14.455Z,99.99
2016-08-30T01:15:14.382Z,99.99
2016-08-30T01:16:14.469Z,99.99
2016-08-30T01:17:14.382Z,99.99
2016-08-30T01:18:14.391Z,99.99
2016-08-30T01:19:14.453Z,99.99
2016-08-30T01:20:14.388Z,99.99
2016-08-30T01:21:14.475Z,99.99
2016-08-30T01:22:14.393Z,99.99
2016-08-30T01:23:14.389Z,99.99
2016-08-30T01:24:14.420Z,99.99
2016-08-30T01:25:14.403Z,99.99
2016-08-30T01:26:14.469Z,99.99
2016-08-30T01:27:14.407Z,99.99
2016-08-30T01:28:14.479Z,99.99
2016-08-30T01:29:14.406Z,99.99
2016-08-30T01:30:14.401Z,99.99
2016-08-30T01:31:14.477Z,99.99
2016-08-30T01:32:14.484Z,99.99
2016-08-30T01:33:14.489Z,99.99
2016-08-30T01:34:14.411Z,99.99
2016-08-30T01:35:14.417Z,99.99
2016-08-30T01:36:14.416Z,99.99
2016-08-30T01:37:14.450Z,99.99
2016-08-30T01:38:14.418Z,99.99
2016-08-30T01:39:14.494Z,99.99
2016-08-30T01:40:14.438Z,99.99
2016-08-30T01:41:14.425Z,99.99
2016-08-30T01:42:14.491Z,99.99
2016-08-30T01:43:14.498Z,99.99
2016-08-30T01:44:14.501Z,99.99
2016-08-30T01:45:14.435Z,99.99
2016-08-30T01:46:14.443Z,99.99
2016-08-30T01:47:14.533Z,99.99
2016-08-30T01:48:14.452Z,99.99
2016-08-30T01:49:14.525Z,99.99
2016-08-30T01:50:14.506Z,99.99
2016-08-30T01:51:14.428Z,99.99
2016-08-30T01:52:14.446Z,99.99
2016-08-30T01:53:14.525Z,99.99
2016-08-30T01:54:14.435Z,99.99
2016-08-30T01:55:14.429Z,99.99
2016-08-30T01:56:14.526Z,99.99
2016-08-30T01:57:14.511Z,99.99
2016-08-30T01:58:14.523Z,99.99
2016-08-30T01:59:14.525Z,99.99
2016-08-30T02:00:14.524Z,99.99
2016-08-30T02:01:14.538Z,99.99
2016-08-30T02:02:14.448Z,99.99
2016-08-30T02:03:14.518Z,99.99
2016-08-30T02:04:14.458Z,99.99
2016-08-30T02:05:14.447Z,99.99
2016-08-30T02:06:14.451Z,99.99
2016-08-30T02:07:14.534Z,99.99
2016-08-30T02:08:14.452Z,99.99
2016-08-30T02:09:14.540Z,99.99
2016-08-30T02:10:14.457Z,99.99
2016-08-30T02:11:14.456Z,99.99
2016-08-30T02:12:14.545Z,99.99
2016-08-30T02:13:14.537Z,99.99
2016-08-30T02:14:14.544Z,99.99
2016-08-30T02:15:14.556Z,99.99
2016-08-30T02:16:14.474Z,99.99
2016-08-30T02:17:14.533Z,99.99
2016-08-30T02:18:14.484Z,99.99
2016-08-30T02:19:14.553Z,99.99
2016-08-30T02:20:14.471Z,99.99
2016-08-30T02:21:14.559Z,99.99
2016-08-30T02:22:14.469Z,99.99
2016-08-30T02:23:14.545Z,99.99
2016-08-30T02:24:14.552Z,99.99
2016-08-30T02:25:14.482Z,99.99
2016-08-30T02:26:14.470Z,99.99
2016-08-30T02:27:14.483Z,99.99
2016-08-30T02:28:14.565Z,99.99
2016-08-30T02:29:14.477Z,99.99
2016-08-30T02:30:14.489Z,99.99
2016-08-30T02:31:14.511Z,99.99
2016-08-30T02:32:14.499Z,99.99
2016-08-30T02:33:14.570Z,99.99
2016-08-30T02:34:14.504Z,99.99
2016-08-30T02:35:14.499Z,99.99
2016-08-30T02:36:14.582Z,99.99
2016-08-30T02:37:14.499Z,99.99
2016-08-30T02:38:14.511Z,99.99
2016-08-30T02:39:14.578Z,99.99
2016-08-30T02:40:14.585Z,99.99
2016-08-30T02:41:14.584Z,99.99
2016-08-30T02:42:14.495Z,99.99
2016-08-30T02:43:14.583Z,99.99
2016-08-30T02:44:14.510Z,99.99
2016-08-30T02:45:14.582Z,99.99
2016-08-30T02:46:14.587Z,99.99
2016-08-30T02:47:14.581Z,99.99
2016-08-30T02:48:14.542Z,99.99
2016-08-30T02:49:14.504Z,99.99
2016-08-30T02:50:14.504Z,99.99
2016-08-30T02:51:14.600Z,99.99
2016-08-30T02:52:14.531Z,99.99
2016-08-30T02:53:14.516Z,99.99
2016-08-30T02:54:14.519Z,99.99
2016-08-30T02:55:14.600Z,99.99
2016-08-30T02:56:14.605Z,99.99
2016-08-30T02:57:14.595Z,99.99
2016-08-30T02:58:14.596Z,99.99
2016-08-30T02:59:14.598Z,99.99
2016-08-30T03:00:14.529Z,99.99
2016-08-30T03:01:14.590Z,99.99
2016-08-30T03:02:14.531Z,99.99
2016-08-30T03:03:14.533Z,99.99
2016-08-30T03:04:14.597Z,99.99
2016-08-30T03:05:14.614Z,99.99
2016-08-30T03:06:14.611Z,99.99
2016-08-30T03:07:14.602Z,99.99
2016-08-30T03:08:14.528Z,99.99
2016-08-30T03:09:14.603Z,99.99
2016-08-30T03:10:14.627Z,99.99
2016-08-30T03:11:14.530Z,99.99
2016-08-30T03:12:14.538Z,99.99
2016-08-30T03:13:14.647Z,99.99
2016-08-30T03:14:14.621Z,99.99
2016-08-30T03:15:15.108Z,99.99
2016-08-30T03:16:14.618Z,99.99
2016-08-30T03:17:14.621Z,99.99
2016-08-30T03:18:14.635Z,99.99
2016-08-30T03:19:14.542Z,99.99
2016-08-30T03:20:14.545Z,99.99
2016-08-30T03:21:14.624Z,99.99
2016-08-30T03:22:14.548Z,99.99
2016-08-30T03:23:14.554Z,99.99
2016-08-30T03:24:14.632Z,99.99
2016-08-30T03:25:14.639Z,99.99
2016-08-30T03:26:14.645Z,99.99
2016-08-30T03:27:14.552Z,99.99
2016-08-30T03:28:14.672Z,99.99
2016-08-30T03:29:14.630Z,99.99
2016-08-30T03:30:14.557Z,99.99
2016-08-30T03:31:14.563Z,99.99
2016-08-30T03:32:14.553Z,99.99
2016-08-30T03:33:14.571Z,99.99
2016-08-30T03:34:14.564Z,99.99
2016-08-30T03:35:14.639Z,99.99
2016-08-30T03:36:14.654Z,99.99
2016-08-30T03:37:14.643Z,99.99
2016-08-30T03:38:14.652Z,99.99
2016-08-30T03:39:14.610Z,99.99
2016-08-30T03:40:14.652Z,99.99
2016-08-30T03:41:14.575Z,99.99
2016-08-30T03:42:14.653Z,99.99
2016-08-30T03:43:14.655Z,99.99
2016-08-30T03:44:14.585Z,99.99
2016-08-30T03:45:14.572Z,99.99
2016-08-30T03:46:14.664Z,99.99
2016-08-30T03:47:14.649Z,99.99
2016-08-30T03:48:14.585Z,99.99
2016-08-30T03:49:14.666Z,99.99
2016-08-30T03:50:14.580Z,99.99
2016-08-30T03:51:14.592Z,99.99
2016-08-30T03:52:14.586Z,99.99
2016-08-30T03:53:14.672Z,99.99
2016-08-30T03:54:14.673Z,99.99
2016-08-30T03:55:14.596Z,99.99
2016-08-30T03:56:14.588Z,99.99
2016-08-30T03:57:14.674Z,99.99
2016-08-30T03:58:14.589Z,99.99
2016-08-30T03:59:14.678Z,99.99
2016-08-30T04:00:14.605Z,99.99
2016-08-30T04:01:14.669Z,99.99
2016-08-30T04:02:14.597Z,99.99
2016-08-30T04:03:14.606Z,99.99
2016-08-30T04:04:14.610Z,99.99
2016-08-30T04:05:14.682Z,99.99
2016-08-30T04:06:14.694Z,99.99
2016-08-30T04:07:14.693Z,99.99
2016-08-30T04:08:14.612Z,99.99
2016-08-30T04:09:14.680Z,99.99
2016-08-30T04:10:14.603Z,99.99
2016-08-30T04:11:14.698Z,99.99
2016-08-30T04:12:14.620Z,99.99
2016-08-30T04:13:14.694Z,99.99
2016-08-30T04:14:14.697Z,99.99
2016-08-30T04:15:14.624Z,99.99
2016-08-30T04:16:14.622Z,99.99
2016-08-30T04:17:14.695Z,99.99
2016-08-30T04:18:14.703Z,99.99
2016-08-30T04:19:14.619Z,99.99
2016-08-30T04:20:14.628Z,99.99
2016-08-30T04:21:14.625Z,99.99
2016-08-30T04:22:14.633Z,99.99
2016-08-30T04:23:14.710Z,99.99
2016-08-30T04:24:14.709Z,99.99
2016-08-30T04:25:14.708Z,99.99
2016-08-30T04:26:14.704Z,99.99
2016-08-30T04:27:14.629Z,99.99
2016-08-30T04:28:14.635Z,99.99
2016-08-30T04:29:14.633Z,99.99
2016-08-30T04:30:14.726Z,99.99
2016-08-30T04:31:15.385Z,99.99
2016-08-30T04:32:14.735Z,99.99
2016-08-30T04:33:14.722Z,99.99
2016-08-30T04:34:14.719Z,99.99
2016-08-30T04:35:14.644Z,99.99
2016-08-30T04:36:14.658Z,99.99
2016-08-30T04:37:14.647Z,99.99
2016-08-30T04:38:14.741Z,99.99
2016-08-30T04:39:14.645Z,99.99
2016-08-30T04:40:14.650Z,99.99
2016-08-30T04:41:14.645Z,99.99
2016-08-30T04:42:14.729Z,99.99
2016-08-30T04:43:14.654Z,99.99
2016-08-30T04:44:14.729Z,99.99
2016-08-30T04:45:14.735Z,99.99
2016-08-30T04:46:14.746Z,99.99
2016-08-30T04:47:14.730Z,99.99
2016-08-30T04:48:14.657Z,99.99
2016-08-30T04:49:14.658Z,99.99
2016-08-30T04:50:14.663Z,99.99
2016-08-30T04:51:14.672Z,99.99
2016-08-30T04:52:14.676Z,99.99
2016-08-30T04:53:14.749Z,99.99
2016-08-30T04:54:14.740Z,99.99
2016-08-30T04:55:14.673Z,99.99
2016-08-30T04:56:14.742Z,99.99
2016-08-30T04:57:14.671Z,99.99
2016-08-30T04:58:14.756Z,99.99
2016-08-30T04:59:14.751Z,99.99
2016-08-30T05:00:14.770Z,99.99
2016-08-30T05:01:14.762Z,99.99
2016-08-30T05:02:14.754Z,99.99
2016-08-30T05:03:14.749Z,99.99
2016-08-30T05:04:14.672Z,99.99
2016-08-30T05:05:14.768Z,99.99
2016-08-30T05:06:14.762Z,99.99
2016-08-30T05:07:14.685Z,99.99
2016-08-30T05:08:14.688Z,99.99
2016-08-30T05:09:14.683Z,99.99
2016-08-30T05:10:14.766Z,99.99
2016-08-30T05:11:14.690Z,99.99
2016-08-30T05:12:14.696Z,99.99
2016-08-30T05:13:14.780Z,99.99
2016-08-30T05:14:14.780Z,99.99
2016-08-30T05:15:14.773Z,99.99
2016-08-30T05:16:14.771Z,99.99
2016-08-30T05:17:14.780Z,99.99
2016-08-30T05:18:14.780Z,99.99
2016-08-30T05:19:14.795Z,99.99
2016-08-30T05:20:14.776Z,99.99
2016-08-30T05:21:14.780Z,99.99
2016-08-30T05:22:14.701Z,99.99
2016-08-30T05:23:14.709Z,99.99
2016-08-30T05:24:14.699Z,99.99
2016-08-30T05:25:14.709Z,99.99
2016-08-30T05:26:14.707Z,99.99
2016-08-30T05:27:14.712Z,99.99
2016-08-30T05:28:14.787Z,99.99
2016-08-30T05:29:14.800Z,99.99
2016-08-30T05:30:14.723Z,99.99
2016-08-30T05:31:14.792Z,99.99
2016-08-30T05:32:14.717Z,99.99
2016-08-30T05:33:14.719Z,99.99
2016-08-30T05:34:14.796Z,99.99
2016-08-30T05:35:14.716Z,99.99
2016-08-30T05:36:14.720Z,99.99
2016-08-30T05:37:14.818Z,99.99
2016-08-30T05:38:14.829Z,99.99
2016-08-30T05:39:14.805Z,99.99
2016-08-30T05:40:14.850Z,99.99
2016-08-30T05:41:14.847Z,99.99
2016-08-30T05:42:14.809Z,99.99
2016-08-30T05:43:15.039Z,99.99
2016-08-30T05:44:14.738Z,99.99
2016-08-30T05:45:14.745Z,99.99
2016-08-30T05:46:14.735Z,99.99
2016-08-30T05:47:14.745Z,99.99
2016-08-30T05:48:14.739Z,99.99
2016-08-30T05:49:14.817Z,99.99
2016-08-30T05:50:14.739Z,99.99
2016-08-30T05:51:14.830Z,99.99
2016-08-30T05:52:14.816Z,99.99
2016-08-30T05:53:14.742Z,99.99
2016-08-30T05:57:14.759Z,99.99
2016-08-30T05:58:14.845Z,99.99
2016-08-30T05:59:14.824Z,99.99
2016-08-30T06:00:16.359Z,99.99
2016-08-30T06:01:22.908Z,99.99
2016-08-30T06:02:14.755Z,99.99
2016-08-30T06:03:14.755Z,99.99
2016-08-30T06:04:14.755Z,99.99
2016-08-30T06:05:15.078Z,99.99
2016-08-30T06:06:14.783Z,99.99
2016-08-30T06:07:14.943Z,99.99
2016-08-30T06:08:14.890Z,99.99
2016-08-30T06:09:14.872Z,99.99
2016-08-30T06:10:22.247Z,99.99
2016-08-30T06:11:14.777Z,99.99
2016-08-30T06:12:14.764Z,99.99
2016-08-30T06:13:14.777Z,99.99
2016-08-30T06:14:14.989Z,99.99
2016-08-30T06:15:16.610Z,99.99
2016-08-30T06:16:14.778Z,99.99
2016-08-30T06:17:14.770Z,99.99
2016-08-30T06:18:14.861Z,99.99
2016-08-30T06:19:14.795Z,99.99
2016-08-30T06:20:15.105Z,99.99
2016-08-30T06:21:14.861Z,99.99
2016-08-30T06:22:14.793Z,99.99
2016-08-30T06:23:14.784Z,99.99
2016-08-30T06:24:14.782Z,99.99
2016-08-30T06:25:14.792Z,99.99
2016-08-30T06:26:14.784Z,99.99
2016-08-30T06:27:14.856Z,99.99
2016-08-30T06:28:14.869Z,99.99
2016-08-30T06:29:14.788Z,99.99
2016-08-30T06:30:14.866Z,99.99
2016-08-30T06:31:14.866Z,99.99
2016-08-30T06:32:14.793Z,99.99
2016-08-30T06:33:14.861Z,99.99
2016-08-30T06:34:14.872Z,99.99
2016-08-30T06:35:14.805Z,99.99
2016-08-30T06:36:14.872Z,99.99
2016-08-30T06:37:15.273Z,99.99
2016-08-30T06:38:14.818Z,99.99
2016-08-30T06:39:14.874Z,99.99
2016-08-30T06:40:14.811Z,99.99
2016-08-30T06:41:14.880Z,99.99
2016-08-30T06:42:14.896Z,99.99
2016-08-30T06:43:14.820Z,99.99
2016-08-30T06:44:14.885Z,99.99
2016-08-30T06:45:14.890Z,99.99
2016-08-30T06:46:14.814Z,99.99
2016-08-30T06:47:14.893Z,99.99
2016-08-30T06:48:14.818Z,99.99
2016-08-30T06:49:14.895Z,99.99
2016-08-30T06:50:14.851Z,99.99
2016-08-30T06:51:14.901Z,99.99
2016-08-30T06:52:14.835Z,99.99
2016-08-30T06:53:14.918Z,99.68
2016-08-30T06:54:14.906Z,99.82
2016-08-30T06:55:14.901Z,98.77
2016-08-30T06:56:14.905Z,98.43
2016-08-30T06:57:14.837Z,97.04
2016-08-30T06:58:14.856Z,96.18
2016-08-30T06:59:14.843Z,95.84
2016-08-30T07:00:14.927Z,96.61
2016-08-30T07:01:14.856Z,96.13
2016-08-30T07:02:14.921Z,96.61
2016-08-30T07:03:14.860Z,97.14
2016-08-30T07:04:14.867Z,97.24
2016-08-30T07:05:14.841Z,95.36
2016-08-30T07:06:14.848Z,94.88
2016-08-30T07:07:14.872Z,94.88
2016-08-30T07:08:14.921Z,93.82
2016-08-30T07:09:14.905Z,93.58
2016-08-30T07:10:14.856Z,92.72
2016-08-30T07:11:14.860Z,91.47
2016-08-30T07:12:14.934Z,90.84
2016-08-30T07:13:14.931Z,90.94
2016-08-30T07:14:14.864Z,90.45
2016-08-30T07:15:17.927Z,90.36
2016-08-30T07:16:14.935Z,90.26
2016-08-30T07:17:14.870Z,90.17
2016-08-30T07:18:14.864Z,90.31
2016-08-30T07:19:14.870Z,91.36
2016-08-30T07:20:16.591Z,92.38
2016-08-30T07:21:14.981Z,92.62
2016-08-30T07:22:14.890Z,91.47
2016-08-30T07:23:14.912Z,90.55
2016-08-30T07:24:14.950Z,88.53
2016-08-30T07:25:14.971Z,89.59
2016-08-30T07:26:15.114Z,89.3
2016-08-30T07:27:14.950Z,88.63
2016-08-30T07:28:14.953Z,88.44
2016-08-30T07:29:14.953Z,87.9
2016-08-30T07:30:14.946Z,88.48
2016-08-30T07:31:14.964Z,87.9
2016-08-30T07:32:14.899Z,87.56
2016-08-30T07:33:14.889Z,85.58
2016-08-30T07:34:14.890Z,86.6
2016-08-30T07:35:14.897Z,86.36
2016-08-30T07:36:14.895Z,86.89
2016-08-30T07:37:14.892Z,87.7
2016-08-30T07:38:14.912Z,87.8
2016-08-30T07:39:14.977Z,87.99
2016-08-30T07:40:14.975Z,89.39
2016-08-30T07:41:14.911Z,90.06
2016-08-30T07:42:14.903Z,89.39
2016-08-30T07:43:14.986Z,89.58
2016-08-30T07:44:14.901Z,89.1
2016-08-30T07:45:14.901Z,87.76
2016-08-30T07:46:14.972Z,86.83
2016-08-30T07:47:14.919Z,87.03
2016-08-30T07:48:14.972Z,87.46
2016-08-30T07:49:15.007Z,87.95
2016-08-30T07:50:14.929Z,86.99
2016-08-30T07:51:26.664Z,85.87
2016-08-30T07:52:27.762Z,85.43
2016-08-30T07:53:14.992Z,84.09
2016-08-30T07:54:14.915Z,83.55
2016-08-30T07:55:14.945Z,82.97
2016-08-30T07:56:15.028Z,81.52
2016-08-30T07:57:14.995Z,81.43
2016-08-30T07:58:14.993Z,80.76
2016-08-30T07:59:14.927Z,80.22
2016-08-30T08:00:14.924Z,80.89
2016-08-30T08:01:14.931Z,80.27
2016-08-30T08:02:14.992Z,79.83
2016-08-30T08:03:14.929Z,79.49
2016-08-30T08:04:15.006Z,79.64
2016-08-30T08:05:15.045Z,78.38
2016-08-30T08:06:15.011Z,78.03
2016-08-30T08:07:15.005Z,77.98
2016-08-30T08:08:14.980Z,78.36
2016-08-30T08:09:14.939Z,77.07
2016-08-30T08:10:15.012Z,76.5
2016-08-30T08:11:15.021Z,78.13
2016-08-30T08:12:15.058Z,77.71
2016-08-30T08:13:15.049Z,77.33
2016-08-30T08:14:14.948Z,77.09
2016-08-30T08:15:15.022Z,77.38
2016-08-30T08:16:14.943Z,76.93
2016-08-30T08:17:15.029Z,77.23
2016-08-30T08:18:15.068Z,76.5
2016-08-30T08:19:14.954Z,76.05
2016-08-30T08:20:14.944Z,76.53
2016-08-30T08:21:14.954Z,76.43
2016-08-30T08:22:15.032Z,74.79
2016-08-30T08:23:15.044Z,75.37
2016-08-30T08:24:15.039Z,75.88
2016-08-30T08:25:14.970Z,77.03
2016-08-30T08:26:15.044Z,77.28
2016-08-30T08:27:15.051Z,77.09
2016-08-30T08:28:15.004Z,76.8
2016-08-30T08:29:14.966Z,76.65
2016-08-30T08:30:15.051Z,75.72
2016-08-30T08:31:15.041Z,75.14
2016-08-30T08:32:15.050Z,74.21
2016-08-30T08:33:14.972Z,72.71
2016-08-30T08:34:15.061Z,72.42
2016-08-30T08:35:15.116Z,71.23
2016-08-30T08:36:15.055Z,71.23
2016-08-30T08:37:15.084Z,71.04
2016-08-30T08:38:15.100Z,71.48
2016-08-30T08:39:16.028Z,70.97
2016-08-30T08:40:14.991Z,70.2
2016-08-30T08:42:14.977Z,69.49
2016-08-30T08:43:14.997Z,69.3
2016-08-30T08:44:15.755Z,68.62
2016-08-30T08:45:16.162Z,69.94
2016-08-30T08:46:14.993Z,71.84
2016-08-30T08:47:15.117Z,71.32
2016-08-30T08:48:15.019Z,71.7
2016-08-30T08:49:15.115Z,72.34
2016-08-30T08:50:15.190Z,72.28
2016-08-30T08:51:15.163Z,72.09
2016-08-30T08:52:15.296Z,72.77
2016-08-30T08:53:15.101Z,72.48
2016-08-30T08:54:15.083Z,71.61
2016-08-30T08:55:15.789Z,71.22
2016-08-30T08:56:15.051Z,71.8
2016-08-30T08:57:15.018Z,71.12
2016-08-30T08:58:15.064Z,72.28
2016-08-30T08:59:15.052Z,71.96
2016-08-30T09:00:15.712Z,71.58
2016-08-30T09:01:15.127Z,70.9
2016-08-30T09:02:15.723Z,71.12
2016-08-30T09:03:15.259Z,71.32
2016-08-30T09:04:15.107Z,71
2016-08-30T09:05:15.696Z,70.84
2016-08-30T09:06:15.121Z,71.96
2016-08-30T09:07:15.121Z,70.94
2016-08-30T09:08:15.028Z,69.68
2016-08-30T09:09:15.046Z,70.16
2016-08-30T09:10:15.825Z,69.78
2016-08-30T09:11:16.667Z,70.16
2016-08-30T09:12:15.097Z,70.36
2016-08-30T09:13:15.035Z,70.84
2016-08-30T09:14:15.105Z,70.16
2016-08-30T09:15:15.272Z,70.06
2016-08-30T09:16:15.038Z,68.94
2016-08-30T09:17:15.111Z,70.1
2016-08-30T09:18:15.140Z,68.98
2016-08-30T09:19:15.140Z,67.27
2016-08-30T09:20:15.127Z,67.49
2016-08-30T09:21:15.115Z,66.33
2016-08-30T09:22:15.048Z,65.72
2016-08-30T09:23:15.116Z,64.17
2016-08-30T09:24:15.138Z,63.24
2016-08-30T09:25:15.065Z,63.43
2016-08-30T09:26:15.130Z,62.79
2016-08-30T09:27:15.176Z,62.46
2016-08-30T09:28:15.172Z,63.46
2016-08-30T09:29:15.064Z,65.01
2016-08-30T09:30:15.228Z,66.17
2016-08-30T09:31:15.088Z,66.05
2016-08-30T09:32:15.063Z,67.08
2016-08-30T09:33:15.143Z,65.95
2016-08-30T09:34:15.187Z,66.53
2016-08-30T09:35:15.061Z,65.66
2016-08-30T09:36:15.067Z,65.4
2016-08-30T09:37:15.084Z,65.3
2016-08-30T09:38:15.098Z,65.69
2016-08-30T09:39:15.145Z,66.05
2016-08-30T09:40:15.151Z,67.27
2016-08-30T09:41:15.075Z,66.94
2016-08-30T09:42:15.113Z,66.11
2016-08-30T09:43:15.124Z,65.11
2016-08-30T09:44:15.222Z,63.79
2016-08-30T09:45:15.170Z,63.46
2016-08-30T09:46:15.100Z,64.59
2016-08-30T09:47:15.079Z,64.27
2016-08-30T09:48:15.161Z,63.21
2016-08-30T09:49:15.225Z,64.62
2016-08-30T09:50:15.275Z,65.95
2016-08-30T09:51:15.094Z,66.2
2016-08-30T09:52:15.097Z,65.11
2016-08-30T09:53:15.174Z,64.14
2016-08-30T09:54:15.110Z,64.62
2016-08-30T09:55:15.184Z,64.95
2016-08-30T09:56:15.092Z,66.98
2016-08-30T09:57:15.102Z,68.26
2016-08-30T09:58:15.181Z,68.01
2016-08-30T09:59:15.185Z,66.2
2016-08-30T10:00:15.209Z,66.2
2016-08-30T10:01:15.193Z,65.66
2016-08-30T10:02:15.103Z,65.75
2016-08-30T10:03:15.781Z,65.56
2016-08-30T10:04:15.109Z,64.53
2016-08-30T10:05:15.121Z,64.56
2016-08-30T10:06:15.187Z,64.27
2016-08-30T10:07:15.126Z,64.27
2016-08-30T10:08:15.284Z,65.43
2016-08-30T10:09:15.200Z,64.37
2016-08-30T10:10:15.127Z,63.34
2016-08-30T10:11:15.215Z,61.33
2016-08-30T10:12:15.148Z,62.23
2016-08-30T10:13:15.130Z,63.62
2016-08-30T10:14:15.206Z,65.11
2016-08-30T10:15:15.212Z,64.4
2016-08-30T10:16:15.197Z,63.46
2016-08-30T10:17:15.127Z,63.79
2016-08-30T10:18:15.200Z,63.46
2016-08-30T10:19:15.202Z,62.14
2016-08-30T10:20:15.213Z,62.4
2016-08-30T10:21:16.204Z,61.26
2016-08-30T10:22:15.227Z,63.4
2016-08-30T10:23:15.212Z,64.21
2016-08-30T10:24:15.318Z,65.14
2016-08-30T10:25:15.231Z,65.72
2016-08-30T10:26:15.147Z,65.78
2016-08-30T10:27:15.149Z,64.95
2016-08-30T10:28:15.156Z,64.11
2016-08-30T10:29:15.236Z,63.37
2016-08-30T10:30:15.159Z,64.31
2016-08-30T10:31:15.153Z,63.43
2016-08-30T10:32:15.159Z,63.63
2016-08-30T10:33:15.236Z,62.69
2016-08-30T10:34:15.193Z,62.37
2016-08-30T10:35:15.168Z,61.24
2016-08-30T10:36:15.158Z,60.04
2016-08-30T10:37:15.224Z,60.14
2016-08-30T10:38:15.161Z,59
2016-08-30T10:39:15.250Z,58.91
2016-08-30T10:40:15.178Z,58.65
2016-08-30T10:41:15.174Z,59.1
2016-08-30T10:42:15.252Z,60.04
2016-08-30T10:43:15.256Z,59.1
2016-08-30T10:44:15.245Z,59.13
2016-08-30T10:45:15.306Z,59.49
2016-08-30T10:46:15.264Z,59.82
2016-08-30T10:47:15.185Z,60.43
2016-08-30T10:48:15.186Z,58.78
2016-08-30T10:49:15.246Z,57.87
2016-08-30T10:50:15.183Z,57.34
2016-08-30T10:51:15.260Z,56.09
2016-08-30T10:52:15.242Z,55.85
2016-08-30T10:53:15.207Z,55.07
2016-08-30T10:54:15.193Z,55.19
2016-08-30T10:55:15.295Z,53.47
2016-08-30T10:56:15.219Z,52.79
2016-08-30T10:57:15.284Z,53.99
2016-08-30T10:58:15.578Z,53.83
2016-08-30T10:59:15.573Z,53.93
2016-08-30T11:00:15.670Z,53.54
2016-08-30T11:01:15.739Z,53.38
2016-08-30T11:02:15.579Z,52.45
2016-08-30T11:03:15.202Z,52.58
2016-08-30T11:04:15.200Z,51.73
2016-08-30T11:05:15.350Z,51.34
2016-08-30T11:06:15.216Z,51.53
2016-08-30T11:07:15.350Z,51.09
2016-08-30T11:08:15.217Z,52.14
2016-08-30T11:09:15.257Z,52.57
2016-08-30T11:10:15.288Z,52.57
2016-08-30T11:11:15.214Z,51.7
2016-08-30T11:12:15.284Z,52.23
2016-08-30T11:13:15.293Z,53.28
2016-08-30T11:14:15.306Z,53.52
2016-08-30T11:15:15.276Z,52.74
2016-08-30T11:16:15.337Z,51.4
2016-08-30T11:17:15.292Z,51.14
2016-08-30T11:18:15.323Z,53.06
2016-08-30T11:19:15.312Z,53.97
2016-08-30T11:20:15.230Z,54.44
2016-08-30T11:21:15.311Z,56.71
2016-08-30T11:22:15.302Z,57.53
2016-08-30T11:23:15.233Z,58.8
2016-08-30T11:24:15.317Z,59.86
2016-08-30T11:25:15.313Z,58.6
2016-08-30T11:26:15.349Z,56.65
2016-08-30T11:27:15.245Z,54.86
2016-08-30T11:28:15.243Z,54.8
2016-08-30T11:29:15.302Z,53.95
2016-08-30T11:30:15.254Z,53.75
2016-08-30T11:31:15.321Z,54.31
2016-08-30T11:32:15.244Z,55.28
2016-08-30T11:33:15.354Z,54.41
2016-08-30T11:34:15.425Z,53.47
2016-08-30T11:35:15.333Z,54.24
2016-08-30T11:36:19.231Z,54.02
2016-08-30T11:37:15.274Z,54.41
2016-08-30T11:38:15.337Z,55.32
2016-08-30T11:39:15.377Z,54.55
2016-08-30T11:40:15.334Z,53.05
2016-08-30T11:41:15.261Z,52.06
2016-08-30T11:42:15.271Z,52.35
2016-08-30T11:43:15.270Z,52.09
2016-08-30T11:44:15.347Z,51.21
2016-08-30T11:45:15.397Z,52.21
2016-08-30T11:46:15.342Z,50.87
2016-08-30T11:47:15.350Z,49.8
2016-08-30T11:48:15.347Z,49.22
2016-08-30T11:49:15.352Z,50.31
2016-08-30T11:50:15.281Z,50.6
2016-08-30T11:51:15.310Z,51.59
2016-08-30T11:52:15.357Z,52.28
2016-08-30T11:53:15.349Z,52.11
2016-08-30T11:54:15.366Z,54.6
2016-08-30T11:55:15.304Z,55.27
2016-08-30T11:56:15.366Z,55.1
2016-08-30T11:57:15.371Z,54.26
2016-08-30T11:58:15.384Z,55.49
2016-08-30T11:59:15.396Z,55.27
2016-08-30T12:00:15.303Z,54.45
2016-08-30T12:01:15.380Z,53.31
2016-08-30T12:02:15.406Z,53.95
2016-08-30T12:03:15.370Z,52.2
2016-08-30T12:04:15.398Z,52.03
2016-08-30T12:05:15.356Z,51.16
2016-08-30T12:06:15.407Z,50.58
2016-08-30T12:07:15.385Z,50.41
2016-08-30T12:08:15.311Z,50.51
2016-08-30T12:09:15.400Z,50.6
2016-08-30T12:10:15.308Z,50.99
2016-08-30T12:11:15.417Z,50.7
2016-08-30T12:12:15.311Z,51.55
2016-08-30T12:13:15.817Z,52.34
2016-08-30T12:14:15.312Z,51.31
2016-08-30T12:15:15.473Z,50.19
2016-08-30T12:16:15.385Z,49.37
2016-08-30T12:17:16.139Z,49.68
2016-08-30T12:18:15.395Z,49
2016-08-30T12:19:15.406Z,49.68
2016-08-30T12:20:15.403Z,49.17
2016-08-30T12:21:15.417Z,48.2
2016-08-30T12:22:15.335Z,48.3
2016-08-30T12:23:15.335Z,49.27
2016-08-30T12:24:15.408Z,49.37
2016-08-30T12:25:15.455Z,49
2016-08-30T12:26:15.413Z,48.93
2016-08-30T12:27:15.486Z,48.51
2016-08-30T12:28:15.414Z,48.8
2016-08-30T12:29:15.407Z,49
2016-08-30T12:30:15.426Z,49.37
2016-08-30T12:31:15.415Z,49.17
2016-08-30T12:32:15.429Z,48.88
2016-08-30T12:33:15.426Z,48.71
2016-08-30T12:34:15.475Z,49.15
2016-08-30T12:35:15.422Z,48.39
2016-08-30T12:36:15.364Z,48.34
2016-08-30T12:37:15.431Z,47.03
2016-08-30T12:38:15.546Z,47.13
2016-08-30T12:39:15.356Z,47.42
2016-08-30T12:40:15.437Z,47.15
2016-08-30T12:41:15.454Z,46.2
2016-08-30T12:42:15.364Z,46.25
2016-08-30T12:43:15.457Z,46.64
2016-08-30T12:44:15.695Z,46.91
2016-08-30T12:45:15.461Z,46.44
2016-08-30T12:46:15.453Z,45.88
2016-08-30T12:47:15.395Z,45.88
2016-08-30T12:48:15.466Z,45.9
2016-08-30T12:49:15.412Z,45.73
2016-08-30T12:50:15.544Z,46.02
2016-08-30T12:51:15.373Z,46.66
2016-08-30T12:52:15.469Z,46.15
2016-08-30T12:53:15.466Z,46.61
2016-08-30T12:54:15.463Z,47.13
2016-08-30T12:55:15.471Z,47.69
2016-08-30T12:56:15.473Z,47.76
2016-08-30T12:57:15.412Z,48.2
2016-08-30T12:58:15.462Z,48.2